Time;durP1;ratioP1;P1;durP2;ratioP2;P2;SDS_P1;SDS_P2;PMS_P1;PMS_P2;Temp;Humidity;BMP_temperature;BMP_pressure;BME280_temperature;BME280_humidity;BME280_pressure;Samples;Min_cycle;Max_cycle;Signal;HPM_P1;HPM_P2
2022/05/21 00:00:50;;;;;;;1.70;1.60;;;18.40;99.90;;;;;;5053901;28;20448;-60
2022/05/21 00:03:17;;;;;;;3.00;1.67;;;18.40;99.90;;;;;;5054110;28;20866;-59
2022/05/21 00:05:46;;;;;;;1.60;1.40;;;18.40;99.90;;;;;;5053940;28;20487;-59
2022/05/21 00:08:12;;;;;;;1.67;1.57;;;18.40;99.90;;;;;;5054002;28;20452;-59
2022/05/21 00:10:40;;;;;;;3.37;1.77;;;18.30;99.90;;;;;;5053841;28;20455;-59
2022/05/21 00:13:07;;;;;;;1.93;1.57;;;18.20;99.90;;;;;;5053747;28;20452;-59
2022/05/21 00:15:35;;;;;;;2.60;1.43;;;18.10;99.90;;;;;;5053566;28;20543;-59
2022/05/21 00:18:02;;;;;;;1.40;1.30;;;18.10;99.90;;;;;;5053832;28;20843;-59
2022/05/21 00:23:17;;;;;;;1.30;1.20;;;18.10;99.90;;;;;;5053621;28;20539;-59
2022/05/21 00:25:45;;;;;;;1.40;1.20;;;18.00;99.90;;;;;;5053519;28;20502;-59
2022/05/21 00:28:11;;;;;;;1.30;1.20;;;17.90;99.90;;;;;;5053373;28;20448;-59
2022/05/21 00:30:38;;;;;;;1.90;1.43;;;17.90;99.90;;;;;;5053614;28;20448;-60
2022/05/21 00:33:06;;;;;;;1.83;1.60;;;17.90;99.90;;;;;;5053557;28;20535;-59
2022/05/21 00:35:33;;;;;;;2.77;1.43;;;17.90;99.90;;;;;;5053473;28;20448;-59
2022/05/21 00:38:00;;;;;;;1.43;1.30;;;17.80;99.90;;;;;;5053353;28;20457;-59
2022/05/21 00:40:29;;;;;;;2.17;1.73;;;17.80;99.90;;;;;;5053283;28;20893;-60
2022/05/21 00:42:56;;;;;;;1.30;1.20;;;17.80;99.90;;;;;;5053217;28;20486;-59
2022/05/21 00:45:24;;;;;;;2.47;1.37;;;17.80;99.90;;;;;;5053316;28;20488;-60
2022/05/21 00:47:50;;;;;;;4.00;1.40;;;17.80;99.90;;;;;;5053244;28;20535;-60
2022/05/21 00:50:21;;;;;;;1.43;1.33;;;17.80;99.90;;;;;;5053224;28;20449;-59
2022/05/21 00:52:48;;;;;;;1.40;1.30;;;17.80;99.90;;;;;;5053199;28;20459;-59
2022/05/21 00:55:19;;;;;;;3.30;1.23;;;17.70;99.90;;;;;;5052285;28;20539;-59
2022/05/21 00:59:47;;;;;;;2.60;1.20;;;17.60;99.90;;;;;;5053242;28;20447;-59
2022/05/21 01:00:36;;;;;;;2.30;1.30;;;17.70;99.90;;;;;;5053051;28;20957;-59
2022/05/21 01:03:02;;;;;;;1.50;1.40;;;17.60;99.90;;;;;;5052960;28;20444;-59
2022/05/21 01:05:29;;;;;;;1.00;1.00;;;17.60;99.90;;;;;;5052866;28;20218;-60
2022/05/21 01:07:58;;;;;;;3.30;1.30;;;17.60;99.90;;;;;;5053175;28;20811;-59
2022/05/21 01:10:28;;;;;;;1.90;1.20;;;17.60;99.90;;;;;;5053073;28;20448;-59
2022/05/21 01:12:57;;;;;;;1.37;1.27;;;17.50;99.90;;;;;;5053052;28;20535;-59
2022/05/21 01:15:28;;;;;;;2.33;1.50;;;17.40;99.90;;;;;;5052975;28;20499;-59
2022/05/21 01:17:55;;;;;;;1.73;1.50;;;17.40;99.90;;;;;;5052858;28;20811;-59
2022/05/21 01:20:24;;;;;;;1.40;1.30;;;17.30;99.90;;;;;;5052778;28;20453;-59
2022/05/21 01:22:54;;;;;;;1.90;1.30;;;17.30;99.90;;;;;;5052969;28;20449;-59
2022/05/21 01:25:23;;;;;;;1.70;1.50;;;17.20;99.90;;;;;;5052722;28;20479;-60
2022/05/21 01:27:52;;;;;;;1.60;1.50;;;17.20;99.90;;;;;;5052832;28;20803;-59
2022/05/21 01:30:20;;;;;;;1.63;1.53;;;17.20;99.90;;;;;;5052769;28;20538;-59
2022/05/21 01:32:48;;;;;;;1.90;1.80;;;17.20;99.90;;;;;;5052720;28;20483;-59
2022/05/21 01:35:15;;;;;;;1.73;1.63;;;17.20;99.90;;;;;;5052863;28;20452;-59
2022/05/21 01:37:41;;;;;;;1.33;1.23;;;17.20;99.90;;;;;;5052831;28;20781;-59
2022/05/21 01:40:11;;;;;;;1.37;1.27;;;17.20;99.90;;;;;;5052706;28;20444;-59
2022/05/21 01:42:38;;;;;;;7.47;1.70;;;17.20;99.90;;;;;;5052771;28;20550;-59
2022/05/21 01:45:06;;;;;;;2.50;1.40;;;17.20;99.90;;;;;;5052555;28;20570;-59
2022/05/21 01:47:32;;;;;;;1.30;1.20;;;17.10;99.90;;;;;;5052760;28;20452;-59
2022/05/21 01:49:59;;;;;;;3.47;1.40;;;17.10;99.90;;;;;;5052712;28;20472;-59
2022/05/21 01:52:26;;;;;;;1.73;1.63;;;17.10;99.90;;;;;;5052635;28;20445;-59
2022/05/21 01:54:53;;;;;;;2.60;1.10;;;17.10;99.90;;;;;;5052559;28;20449;-59
2022/05/21 01:57:21;;;;;;;1.70;1.50;;;17.00;99.90;;;;;;5052488;28;20789;-59
2022/05/21 01:59:47;;;;;;;3.57;1.43;;;17.00;99.90;;;;;;5052424;28;20444;-59
2022/05/21 02:02:14;;;;;;;2.47;1.53;;;17.00;99.90;;;;;;5052584;28;20448;-59
2022/05/21 02:04:40;;;;;;;4.60;1.50;;;17.00;99.90;;;;;;5052582;28;20478;-59
2022/05/21 02:07:07;;;;;;;2.40;1.40;;;17.00;99.90;;;;;;5055142;28;20558;-59
2022/05/21 02:09:33;;;;;;;1.60;1.50;;;17.00;99.90;;;;;;5056225;28;20451;-59
2022/05/21 02:12:00;;;;;;;1.33;1.23;;;17.10;99.90;;;;;;5056078;28;20539;-59
2022/05/21 02:14:28;;;;;;;3.63;2.23;;;17.00;99.90;;;;;;5055986;28;20853;-59
2022/05/21 02:16:55;;;;;;;1.70;1.60;;;16.90;99.90;;;;;;5056170;28;20459;-60
2022/05/21 02:19:21;;;;;;;1.70;1.60;;;16.90;99.90;;;;;;5056072;28;20793;-59
2022/05/21 02:21:48;;;;;;;1.60;1.40;;;16.90;99.90;;;;;;5055949;28;20447;-59
2022/05/21 02:24:14;;;;;;;1.73;1.63;;;16.80;99.90;;;;;;5055929;28;20539;-59
2022/05/21 02:26:41;;;;;;;2.20;1.50;;;16.90;99.90;;;;;;5055821;28;20480;-60
2022/05/21 02:29:08;;;;;;;1.93;1.83;;;16.90;99.90;;;;;;5056289;28;20458;-60
2022/05/21 02:31:36;;;;;;;4.87;2.40;;;16.90;99.90;;;;;;5056021;28;20863;-60
2022/05/21 02:34:02;;;;;;;2.07;1.97;;;16.90;99.90;;;;;;5055722;28;20452;-59
2022/05/21 02:39:29;;;;;;;1.93;1.83;;;16.70;99.90;;;;;;5055607;28;20502;-59
2022/05/21 02:41:56;;;;;;;2.73;2.57;;;16.70;99.90;;;;;;5055743;28;20448;-59
2022/05/21 02:44:23;;;;;;;2.63;1.83;;;16.70;99.90;;;;;;5055267;28;20564;-59
2022/05/21 02:46:51;;;;;;;2.50;2.40;;;16.60;99.90;;;;;;5055305;28;20491;-59
2022/05/21 02:49:17;;;;;;;2.30;2.10;;;16.60;99.90;;;;;;5055381;28;20548;-59
2022/05/21 02:51:44;;;;;;;2.50;1.67;;;16.60;99.90;;;;;;5055380;28;20539;-59
2022/05/21 02:54:14;;;;;;;2.20;2.10;;;16.50;99.90;;;;;;5055243;28;20459;-59
2022/05/21 02:56:44;;;;;;;2.90;2.23;;;16.50;99.90;;;;;;5055565;28;20452;-59
2022/05/21 02:59:11;;;;;;;2.43;1.80;;;16.40;99.90;;;;;;5055298;28;20449;-59
2022/05/21 03:01:38;;;;;;;1.80;1.70;;;16.40;99.90;;;;;;5055159;28;20939;-59
2022/05/21 03:04:07;;;;;;;1.83;1.73;;;16.30;99.90;;;;;;5055126;28;20488;-59
2022/05/21 03:06:34;;;;;;;1.53;1.40;;;16.30;99.90;;;;;;5055018;28;20488;-59
2022/05/21 03:11:45;;;;;;;1.57;1.47;;;16.30;99.90;;;;;;5055036;28;20427;-59
2022/05/21 03:14:11;;;;;;;1.70;1.60;;;16.30;99.90;;;;;;5054907;28;20450;-59
2022/05/21 03:16:38;;;;;;;1.83;1.73;;;16.20;99.90;;;;;;5054861;28;20536;-60
2022/05/21 03:19:06;;;;;;;1.93;1.83;;;16.20;99.90;;;;;;5053978;28;20483;-59
2022/05/21 03:21:32;;;;;;;2.90;1.70;;;16.30;99.90;;;;;;5054947;28;20447;-60
2022/05/21 03:23:59;;;;;;;2.17;1.90;;;16.10;99.90;;;;;;5054758;28;21085;-59
2022/05/21 03:26:26;;;;;;;2.20;1.83;;;16.20;99.90;;;;;;5054603;28;20480;-59
2022/05/21 03:28:52;;;;;;;1.97;1.73;;;16.10;99.90;;;;;;5054755;28;20449;-59
2022/05/21 03:31:19;;;;;;;3.27;1.47;;;16.00;99.90;;;;;;5054675;28;20448;-59
2022/05/21 03:33:45;;;;;;;1.67;1.57;;;16.00;99.90;;;;;;5054794;28;20448;-59
2022/05/21 03:36:13;;;;;;;1.80;1.57;;;16.00;99.90;;;;;;5054634;28;20538;-59
2022/05/21 03:38:39;;;;;;;1.93;1.63;;;16.00;99.90;;;;;;5054393;28;20448;-59
2022/05/21 03:41:06;;;;;;;4.27;1.80;;;16.00;99.90;;;;;;5054481;28;20448;-59
2022/05/21 03:43:32;;;;;;;1.70;1.60;;;15.90;99.90;;;;;;5054214;28;20559;-59
2022/05/21 03:46:00;;;;;;;3.30;1.60;;;16.00;99.90;;;;;;5054083;28;20468;-59
2022/05/21 03:48:26;;;;;;;2.10;2.00;;;16.10;99.90;;;;;;5054404;28;20448;-59
2022/05/21 03:50:53;;;;;;;2.37;1.50;;;16.00;99.90;;;;;;5054343;28;20543;-59
2022/05/21 03:53:21;;;;;;;4.30;2.50;;;16.00;99.90;;;;;;5054285;28;20453;-59
2022/05/21 03:55:48;;;;;;;2.27;1.50;;;16.10;99.90;;;;;;5054151;28;20547;-59
2022/05/21 03:58:16;;;;;;;2.30;1.50;;;16.10;99.90;;;;;;5054070;28;20447;-59
2022/05/21 04:00:42;;;;;;;1.63;1.53;;;16.20;99.90;;;;;;5053966;28;20807;-59
2022/05/21 04:03:09;;;;;;;2.00;1.10;;;16.20;99.90;;;;;;5054068;28;20535;-60
2022/05/21 04:05:37;;;;;;;1.30;1.20;;;16.00;99.90;;;;;;5053996;28;20546;-59
2022/05/21 04:08:04;;;;;;;3.00;1.50;;;15.90;99.90;;;;;;5053917;28;20452;-59
2022/05/21 04:10:32;;;;;;;1.57;1.13;;;15.90;99.90;;;;;;5053876;28;20484;-59
2022/05/21 04:12:58;;;;;;;1.30;1.20;;;15.80;99.90;;;;;;5053775;28;20547;-59
2022/05/21 04:15:25;;;;;;;1.30;1.20;;;15.70;99.90;;;;;;5053973;28;20514;-59
2022/05/21 04:17:53;;;;;;;1.20;1.10;;;15.70;99.90;;;;;;5053785;28;20526;-59
2022/05/21 04:20:23;;;;;;;4.33;1.27;;;15.60;99.90;;;;;;5053695;28;20539;-59
2022/05/21 04:22:49;;;;;;;2.30;1.00;;;15.50;99.90;;;;;;5054108;28;20707;-59
2022/05/21 04:25:16;;;;;;;1.30;1.20;;;15.60;99.90;;;;;;5053679;28;20881;-59
2022/05/21 04:27:44;;;;;;;2.40;1.30;;;15.60;99.90;;;;;;5053397;28;20575;-59
2022/05/21 04:30:14;;;;;;;1.40;1.30;;;15.60;99.90;;;;;;5053607;28;20880;-59
2022/05/21 04:32:40;;;;;;;2.70;1.23;;;15.60;99.90;;;;;;5053611;28;20881;-59
2022/05/21 04:35:08;;;;;;;2.33;1.47;;;15.60;99.90;;;;;;5053512;28;20448;-59
2022/05/21 04:37:35;;;;;;;1.87;1.23;;;15.60;99.90;;;;;;5053340;28;20448;-59
2022/05/21 04:40:02;;;;;;;1.53;1.30;;;15.60;99.90;;;;;;5053284;28;20452;-59
2022/05/21 04:42:29;;;;;;;2.03;1.30;;;15.70;99.90;;;;;;5053535;28;20472;-59
2022/05/21 04:44:57;;;;;;;1.23;1.00;;;15.80;99.90;;;;;;5053382;28;20448;-59
2022/05/21 04:47:23;;;;;;;1.60;1.00;;;15.80;99.90;;;;;;5053349;28;20821;-59
2022/05/21 04:49:50;;;;;;;1.30;1.00;;;15.90;99.90;;;;;;5053262;28;20480;-59
2022/05/21 04:52:16;;;;;;;1.40;1.30;;;15.90;99.90;;;;;;5053185;28;20889;-59
2022/05/21 04:54:43;;;;;;;1.47;1.37;;;15.80;99.90;;;;;;5053039;28;20444;-59
2022/05/21 04:57:09;;;;;;;1.53;1.13;;;15.90;99.90;;;;;;5053220;28;20450;-60
2022/05/21 04:59:36;;;;;;;4.93;1.33;;;16.00;99.90;;;;;;5053319;28;20815;-59
2022/05/21 05:02:05;;;;;;;1.20;1.10;;;16.10;99.90;;;;;;5053148;28;20543;-59
2022/05/21 05:04:32;;;;;;;1.30;1.20;;;16.00;99.90;;;;;;5053036;28;20456;-59
2022/05/21 05:06:58;;;;;;;5.60;1.40;;;16.00;99.90;;;;;;5052910;28;20484;-59
2022/05/21 05:09:25;;;;;;;3.33;1.23;;;16.00;99.90;;;;;;5052794;28;20805;-59
2022/05/21 05:11:52;;;;;;;1.63;1.43;;;15.90;99.90;;;;;;5053072;28;20886;-59
2022/05/21 05:14:18;;;;;;;2.40;1.27;;;16.00;99.90;;;;;;5052981;28;20456;-59
2022/05/21 05:16:45;;;;;;;1.50;1.20;;;16.10;99.90;;;;;;5052992;28;20482;-59
2022/05/21 05:19:13;;;;;;;2.67;1.27;;;16.20;99.90;;;;;;5052849;28;20452;-59
2022/05/21 05:21:39;;;;;;;1.30;1.20;;;16.30;99.90;;;;;;5052763;28;20444;-60
2022/05/21 05:24:06;;;;;;;1.50;1.40;;;16.40;99.90;;;;;;5053018;28;20796;-59
2022/05/21 05:26:33;;;;;;;5.20;1.77;;;16.30;99.90;;;;;;5052847;28;20478;-59
2022/05/21 05:29:00;;;;;;;2.23;1.40;;;16.20;99.90;;;;;;5052941;28;20455;-59
2022/05/21 05:31:26;;;;;;;1.43;1.20;;;16.00;99.90;;;;;;5052851;28;20551;-60
2022/05/21 05:33:54;;;;;;;2.30;1.50;;;16.00;99.90;;;;;;5052773;28;20539;-59
2022/05/21 05:36:22;;;;;;;3.10;1.53;;;16.00;99.90;;;;;;5052523;28;20486;-60
2022/05/21 05:38:48;;;;;;;3.33;1.50;;;16.10;99.90;;;;;;5052863;28;20458;-59
2022/05/21 05:41:15;;;;;;;1.70;1.40;;;16.00;99.90;;;;;;5054161;28;21022;-59
2022/05/21 05:43:41;;;;;;;1.50;1.40;;;16.10;99.90;;;;;;5056562;28;20476;-59
2022/05/21 05:46:08;;;;;;;1.73;1.57;;;16.10;99.90;;;;;;5056619;28;20444;-59
2022/05/21 05:48:34;;;;;;;7.80;1.57;;;16.30;99.90;;;;;;5056594;28;20454;-59
2022/05/21 05:51:02;;;;;;;1.40;1.30;;;16.20;99.90;;;;;;5056468;28;20538;-59
2022/05/21 05:53:30;;;;;;;1.60;1.30;;;16.30;99.90;;;;;;5056688;28;20451;-59
2022/05/21 05:55:57;;;;;;;2.70;1.17;;;16.40;99.90;;;;;;5056361;28;21062;-59
2022/05/21 06:01:08;;;;;;;1.93;1.30;;;16.20;99.90;;;;;;5056394;28;20792;-59
2022/05/21 06:03:34;;;;;;;3.13;1.50;;;16.50;99.90;;;;;;5056141;28;20538;-59
2022/05/21 06:06:01;;;;;;;3.07;1.90;;;16.60;99.90;;;;;;5056327;28;20495;-59
2022/05/21 06:08:28;;;;;;;1.93;1.30;;;16.70;99.90;;;;;;5056368;28;20815;-59
2022/05/21 06:10:56;;;;;;;1.30;1.00;;;16.70;99.90;;;;;;5056113;28;20539;-59
2022/05/21 06:13:22;;;;;;;2.70;1.80;;;16.70;99.90;;;;;;5055980;28;20455;-59
2022/05/21 06:15:49;;;;;;;4.03;1.53;;;16.80;99.90;;;;;;5055931;28;21039;-60
2022/05/21 06:18:19;;;;;;;1.83;1.70;;;16.80;99.90;;;;;;5055986;28;20444;-59
2022/05/21 06:20:48;;;;;;;1.90;1.60;;;16.90;99.90;;;;;;5056056;28;20444;-59
2022/05/21 06:23:15;;;;;;;4.03;1.70;;;17.00;99.90;;;;;;5055971;28;20444;-59
2022/05/21 06:25:42;;;;;;;2.90;1.30;;;16.90;99.90;;;;;;5055778;28;20535;-59
2022/05/21 06:28:09;;;;;;;3.87;1.57;;;17.00;99.90;;;;;;5055701;28;21169;-59
2022/05/21 06:30:38;;;;;;;2.87;1.37;;;17.10;99.90;;;;;;5055667;28;20543;-60
2022/05/21 06:33:13;;;;;;;1.67;1.57;;;17.20;99.90;;;;;;5055904;28;20474;-60
2022/05/21 06:35:39;;;;;;;4.90;1.50;;;17.20;99.90;;;;;;5055852;28;20443;-59
2022/05/21 06:38:06;;;;;;;1.60;1.50;;;17.40;99.90;;;;;;5055729;28;20505;-59
2022/05/21 06:40:32;;;;;;;1.70;1.60;;;17.60;99.90;;;;;;5055548;28;21010;-59
2022/05/21 06:43:00;;;;;;;1.50;1.40;;;17.70;99.90;;;;;;5055390;28;20518;-60
2022/05/21 06:45:29;;;;;;;3.33;1.40;;;17.70;99.90;;;;;;5055609;28;21016;-59
2022/05/21 06:47:59;;;;;;;1.70;1.40;;;17.40;99.90;;;;;;5055522;28;20587;-59
2022/05/21 06:50:27;;;;;;;8.10;1.87;;;17.50;99.90;;;;;;5055477;28;20456;-59
2022/05/21 06:52:54;;;;;;;4.80;1.80;;;17.60;99.90;;;;;;5054251;28;20534;-59
2022/05/21 06:55:21;;;;;;;4.00;2.07;;;17.80;99.90;;;;;;5055418;28;20452;-59
2022/05/21 06:57:48;;;;;;;1.40;1.20;;;17.70;99.90;;;;;;5055297;28;20877;-59
2022/05/21 07:00:16;;;;;;;5.40;2.30;;;17.70;99.90;;;;;;5055420;28;20445;-60
2022/05/21 07:02:44;;;;;;;4.00;1.47;;;17.50;99.90;;;;;;5055159;28;20530;-59
2022/05/21 07:07:55;;;;;;;2.97;1.80;;;17.10;99.90;;;;;;5054979;28;20502;-60
2022/05/21 07:10:24;;;;;;;1.97;1.60;;;17.30;99.90;;;;;;5054846;28;20932;-60
2022/05/21 07:12:51;;;;;;;2.63;1.40;;;17.40;99.90;;;;;;5055091;28;20908;-59
2022/05/21 07:15:18;;;;;;;1.60;1.20;;;17.30;99.90;;;;;;5054923;28;20547;-59
2022/05/21 07:17:47;;;;;;;3.00;1.23;;;17.10;99.90;;;;;;5054931;28;20943;-59
2022/05/21 07:20:16;;;;;;;3.67;1.20;;;17.20;99.90;;;;;;5054774;28;20978;-59
2022/05/21 07:22:44;;;;;;;1.70;1.13;;;17.30;99.90;;;;;;5054806;28;20464;-60
2022/05/21 07:25:12;;;;;;;1.50;1.40;;;17.40;99.90;;;;;;5054819;28;20539;-60
2022/05/21 07:27:39;;;;;;;1.30;1.03;;;17.50;99.90;;;;;;5054609;28;20480;-59
2022/05/21 07:30:06;;;;;;;2.13;1.20;;;17.60;99.90;;;;;;5054619;28;20455;-59
2022/05/21 07:32:33;;;;;;;6.60;1.23;;;17.70;99.90;;;;;;5054555;28;20452;-59
2022/05/21 07:35:03;;;;;;;1.53;1.00;;;17.60;99.90;;;;;;5054465;28;20543;-60
2022/05/21 07:37:30;;;;;;;1.80;1.13;;;17.80;99.90;;;;;;5054670;28;20488;-59
2022/05/21 07:39:56;;;;;;;2.70;1.40;;;18.10;99.90;;;;;;5054523;28;20448;-60
2022/05/21 07:42:23;;;;;;;3.57;1.00;;;18.00;99.90;;;;;;5054215;28;20448;-60
2022/05/21 07:44:50;;;;;;;1.73;1.60;;;18.00;99.90;;;;;;5054468;28;20797;-60
2022/05/21 07:47:16;;;;;;;1.73;1.10;;;17.90;99.90;;;;;;5054193;28;20476;-59
2022/05/21 07:49:44;;;;;;;1.33;1.17;;;17.90;99.90;;;;;;5054091;28;20539;-59
2022/05/21 07:52:12;;;;;;;1.90;1.40;;;18.10;99.90;;;;;;5054210;28;20448;-60
2022/05/21 07:54:38;;;;;;;1.60;0.97;;;18.30;99.90;;;;;;5054119;28;20448;-59
2022/05/21 07:57:05;;;;;;;1.53;1.00;;;18.20;99.90;;;;;;5054081;28;20458;-60
2022/05/21 07:59:32;;;;;;;1.40;1.20;;;18.30;99.90;;;;;;5053964;28;20935;-59
2022/05/21 08:01:59;;;;;;;3.50;1.30;;;18.30;99.90;;;;;;5053880;28;20547;-59
2022/05/21 08:04:25;;;;;;;3.20;1.40;;;18.30;99.90;;;;;;5053534;28;20455;-59
2022/05/21 08:06:51;;;;;;;2.80;1.17;;;18.30;99.90;;;;;;5053974;28;20808;-60
2022/05/21 08:09:19;;;;;;;6.90;1.60;;;18.50;99.90;;;;;;5053891;28;20535;-59
2022/05/21 08:11:46;;;;;;;1.37;1.27;;;18.60;99.90;;;;;;5053842;28;20448;-60
2022/05/21 08:14:12;;;;;;;1.30;1.20;;;18.70;99.90;;;;;;5053643;28;20932;-59
2022/05/21 08:16:39;;;;;;;6.33;1.90;;;18.80;99.90;;;;;;5053650;28;20488;-60
2022/05/21 08:19:05;;;;;;;1.53;1.20;;;18.90;99.90;;;;;;5053870;28;20551;-60
2022/05/21 08:21:32;;;;;;;3.17;1.70;;;19.10;99.90;;;;;;5053658;28;20451;-60
2022/05/21 08:27:01;;;;;;;2.73;1.70;;;19.10;99.90;;;;;;5053348;28;20949;-60
2022/05/21 08:29:30;;;;;;;2.23;1.50;;;19.20;99.90;;;;;;5053306;28;20451;-60
2022/05/21 08:31:57;;;;;;;5.80;1.30;;;19.30;99.90;;;;;;5054037;28;20781;-60
2022/05/21 08:34:25;;;;;;;3.57;1.40;;;19.30;99.90;;;;;;5053396;28;20544;-60
2022/05/21 08:36:53;;;;;;;2.93;1.30;;;19.40;99.90;;;;;;5053479;28;20539;-60
2022/05/21 08:39:20;;;;;;;4.80;1.57;;;19.60;99.90;;;;;;5053344;28;20484;-60
2022/05/21 08:41:53;;;;;;;1.87;1.40;;;19.90;99.90;;;;;;5053160;28;20444;-60
2022/05/21 08:44:33;;;;;;;2.30;1.47;;;20.10;99.90;;;;;;5052984;28;20478;-60
2022/05/21 08:47:05;;;;;;;1.87;1.10;;;20.20;99.90;;;;;;5053198;28;20448;-60
2022/05/21 08:49:35;;;;;;;2.00;1.10;;;20.20;99.90;;;;;;5053130;28;21073;-60
2022/05/21 08:52:08;;;;;;;3.70;1.20;;;20.20;99.90;;;;;;5053039;28;20870;-60
2022/05/21 08:54:40;;;;;;;1.73;1.20;;;20.30;99.90;;;;;;5053328;28;20506;-60
2022/05/21 08:57:13;;;;;;;2.83;1.20;;;20.10;99.90;;;;;;5053322;28;20518;-60
2022/05/21 08:59:44;;;;;;;1.20;1.00;;;20.10;99.90;;;;;;5053142;28;20962;-59
2022/05/21 09:02:15;;;;;;;1.47;1.07;;;20.00;99.90;;;;;;5053062;28;20463;-60
2022/05/21 09:04:42;;;;;;;1.00;0.90;;;20.30;99.90;;;;;;5052906;28;20452;-60
2022/05/21 09:07:16;;;;;;;2.53;1.20;;;20.50;99.90;;;;;;5052962;28;20882;-60
2022/05/21 09:09:54;;;;;;;1.30;1.17;;;20.60;99.90;;;;;;5053054;28;20459;-60
2022/05/21 09:12:24;;;;;;;1.50;1.20;;;20.50;99.90;;;;;;5052837;28;21014;-60
2022/05/21 09:14:54;;;;;;;1.73;1.30;;;20.30;99.90;;;;;;5052786;28;20479;-60
2022/05/21 09:17:24;;;;;;;3.40;2.00;;;20.00;99.90;;;;;;5052316;28;20894;-60
2022/05/21 09:19:53;;;;;;;1.80;1.40;;;19.60;99.90;;;;;;5052814;28;20453;-59
2022/05/21 09:22:22;;;;;;;2.20;2.00;;;19.10;99.90;;;;;;5052855;28;20449;-60
2022/05/21 09:24:50;;;;;;;1.93;1.27;;;18.90;99.90;;;;;;5052784;28;20547;-60
2022/05/21 09:27:28;;;;;;;3.37;1.00;;;18.80;99.90;;;;;;5052703;28;20847;-60
2022/05/21 09:30:13;;;;;;;2.80;1.57;;;18.80;99.90;;;;;;5052708;28;20455;-60
2022/05/21 09:32:40;;;;;;;1.93;1.50;;;18.90;99.90;;;;;;5052836;28;20532;-60
2022/05/21 09:35:11;;;;;;;1.40;1.30;;;19.00;99.90;;;;;;5052723;28;20531;-60
2022/05/21 09:37:39;;;;;;;2.23;2.00;;;19.20;99.90;;;;;;5052679;28;20448;-60
2022/05/21 09:40:24;;;;;;;1.77;1.30;;;19.00;99.90;;;;;;5052566;28;20906;-60
2022/05/21 09:45:38;;;;;;;4.80;1.73;;;18.80;99.90;;;;;;5052549;28;20439;-59
2022/05/21 09:48:18;;;;;;;4.60;3.30;;;18.50;99.90;;;;;;5052430;28;20579;-60
2022/05/21 09:50:47;;;;;;;2.60;1.70;;;18.40;99.90;;;;;;5052372;28;20538;-60
2022/05/21 09:53:23;;;;;;;2.03;1.60;;;18.40;99.90;;;;;;5052548;28;20452;-60
2022/05/21 09:55:58;;;;;;;1.97;1.50;;;18.40;99.90;;;;;;5052571;28;20543;-60
2022/05/21 09:58:26;;;;;;;1.80;1.70;;;18.50;99.90;;;;;;5052547;28;20890;-60
2022/05/21 10:00:54;;;;;;;2.73;1.63;;;18.80;99.90;;;;;;5052305;28;20973;-60
2022/05/21 10:03:45;;;;;;;1.90;1.77;;;18.90;99.90;;;;;;5052585;28;20531;-60
2022/05/21 10:06:23;;;;;;;2.10;1.83;;;19.20;99.90;;;;;;5052412;28;20451;-60
2022/05/21 10:11:44;;;;;;;2.13;2.03;;;19.50;99.90;;;;;;5052381;28;20455;-60
2022/05/21 10:14:18;;;;;;;5.97;2.63;;;19.40;99.90;;;;;;5052364;28;20445;-60
2022/05/21 10:16:49;;;;;;;5.77;3.30;;;19.50;99.90;;;;;;5052261;28;20994;-60
2022/05/21 10:19:20;;;;;;;3.73;3.53;;;19.40;99.90;;;;;;5052291;28;20538;-60
2022/05/21 10:21:58;;;;;;;4.50;3.70;;;19.30;99.90;;;;;;5052280;28;20531;-60
2022/05/21 10:24:35;;;;;;;5.27;4.27;;;19.10;99.90;;;;;;5052372;28;20448;-60
2022/05/21 10:27:13;;;;;;;4.87;4.47;;;18.80;99.90;;;;;;5053439;28;20448;-60
2022/05/21 10:29:59;;;;;;;4.80;4.40;;;18.70;99.90;;;;;;5055827;28;20530;-60
2022/05/21 10:32:41;;;;;;;5.53;4.80;;;18.80;99.90;;;;;;5056009;28;20441;-60
2022/05/21 10:35:35;;;;;;;4.50;4.13;;;19.00;99.90;;;;;;5055830;28;20962;-60
2022/05/21 10:38:06;;;;;;;5.27;3.40;;;19.30;99.90;;;;;;5055481;28;20543;-60
2022/05/21 10:40:38;;;;;;;5.20;3.17;;;19.60;99.90;;;;;;5055560;28;20554;-60
2022/05/21 10:43:26;;;;;;;4.23;3.40;;;19.80;99.90;;;;;;5055408;28;20476;-60
2022/05/21 10:46:07;;;;;;;4.00;3.10;;;20.10;99.90;;;;;;5055413;28;20551;-60
2022/05/21 10:48:49;;;;;;;4.80;4.10;;;20.50;99.90;;;;;;5055334;28;20574;-60
2022/05/21 10:51:21;;;;;;;3.80;3.43;;;20.60;99.90;;;;;;5055503;28;20455;-60
2022/05/21 10:54:05;;;;;;;3.83;3.00;;;20.60;99.90;;;;;;5055527;28;20502;-60
2022/05/21 10:56:45;;;;;;;5.03;3.37;;;20.40;99.90;;;;;;5055324;28;20894;-60
2022/05/21 10:59:27;;;;;;;2.93;2.73;;;20.40;99.90;;;;;;5055267;28;20781;-60
2022/05/21 11:02:10;;;;;;;3.63;2.53;;;20.30;99.90;;;;;;5055300;28;20448;-60
2022/05/21 11:05:01;;;;;;;4.00;2.60;;;20.80;99.90;;;;;;5055119;28;20448;-60
2022/05/21 11:07:38;;;;;;;3.10;2.60;;;21.30;99.90;;;;;;5055069;28;20803;-60
2022/05/21 11:10:14;;;;;;;2.70;2.50;;;21.40;99.90;;;;;;5055226;28;20807;-60
2022/05/21 11:12:51;;;;;;;3.07;2.80;;;21.00;99.90;;;;;;5055030;28;20456;-60
2022/05/21 11:15:28;;;;;;;3.83;3.17;;;20.90;99.90;;;;;;5054894;28;20458;-60
2022/05/21 11:18:02;;;;;;;6.33;2.77;;;20.70;99.90;;;;;;5054798;28;20504;-60
2022/05/21 11:20:33;;;;;;;3.10;2.10;;;20.70;99.90;;;;;;5055053;28;20501;-60
2022/05/21 11:23:06;;;;;;;3.00;2.70;;;20.60;99.90;;;;;;5054929;28;20543;-60
2022/05/21 11:25:38;;;;;;;4.60;2.43;;;20.30;99.90;;;;;;5054794;28;20578;-60
2022/05/21 11:28:29;;;;;;;2.87;2.67;;;20.00;99.90;;;;;;5054628;28;20479;-60
2022/05/21 11:30:58;;;;;;;6.10;3.83;;;20.10;99.90;;;;;;5054771;28;20444;-60
2022/05/21 11:39:02;;;;;;;2.73;2.50;;;21.30;99.90;;;;;;5053855;28;20510;-60
2022/05/21 11:41:58;;;;;;;4.30;3.13;;;21.40;99.90;;;;;;5054515;28;20478;-60
2022/05/21 11:47:35;;;;;;;3.50;3.30;;;20.80;99.90;;;;;;5054312;28;20439;-60
2022/05/21 11:50:15;;;;;;;5.00;3.40;;;20.60;99.90;;;;;;5054268;28;20480;-60
2022/05/21 11:52:57;;;;;;;4.90;3.27;;;20.50;99.90;;;;;;5054143;28;20455;-60
2022/05/21 11:55:28;;;;;;;2.83;2.63;;;20.20;99.90;;;;;;5054055;28;20432;-60
2022/05/21 11:57:57;;;;;;;3.70;3.00;;;20.20;99.90;;;;;;5053963;28;20924;-60
2022/05/21 12:00:47;;;;;;;5.90;3.27;;;20.40;99.90;;;;;;5054291;28;20543;-60
2022/05/21 12:03:16;;;;;;;4.70;3.73;;;20.90;99.90;;;;;;5053915;28;21006;-60
2022/05/21 12:06:31;;;;;;;4.73;3.30;;;21.50;99.90;;;;;;5053899;28;20480;-60
2022/05/21 12:09:21;;;;;;;3.63;2.80;;;21.70;99.90;;;;;;5053836;28;20516;-60
2022/05/21 12:11:48;;;;;;;3.13;2.83;;;21.80;99.90;;;;;;5053904;28;20539;-60
2022/05/21 12:14:27;;;;;;;3.20;2.67;;;21.70;99.90;;;;;;5053459;28;20448;-60
2022/05/21 12:17:01;;;;;;;3.00;2.60;;;21.60;99.90;;;;;;5053726;28;20461;-60
2022/05/21 12:20:09;;;;;;;3.20;2.90;;;21.40;99.90;;;;;;5053603;28;20457;-60
2022/05/21 12:22:52;;;;;;;4.97;2.40;;;20.80;99.90;;;;;;5053562;28;20986;-60
2022/05/21 12:25:56;;;;;;;4.70;2.30;;;20.50;99.90;;;;;;5053753;28;20448;-60
2022/05/21 12:28:25;;;;;;;10.63;2.97;;;20.40;99.90;;;;;;5053455;28;20874;-60
2022/05/21 12:30:59;;;;;;;2.80;2.60;;;20.30;99.90;;;;;;5053370;28;20541;-60
2022/05/21 12:33:36;;;;;;;6.17;2.80;;;20.30;99.90;;;;;;5053640;28;20479;-60
2022/05/21 12:36:10;;;;;;;2.77;2.57;;;20.30;99.90;;;;;;5053507;28;20860;-60
2022/05/21 12:38:41;;;;;;;5.57;2.73;;;20.20;99.90;;;;;;5053436;28;20538;-60
2022/05/21 12:41:14;;;;;;;2.73;2.53;;;20.00;99.90;;;;;;5053330;28;20455;-60
2022/05/21 12:43:43;;;;;;;3.23;2.87;;;19.90;99.90;;;;;;5052993;28;20480;-60
2022/05/21 12:46:19;;;;;;;3.07;2.73;;;19.70;99.90;;;;;;5053358;28;20551;-60
2022/05/21 12:48:46;;;;;;;3.10;2.87;;;19.50;99.90;;;;;;5053046;28;21062;-60
2022/05/21 12:51:26;;;;;;;2.83;2.57;;;19.40;99.90;;;;;;5052267;28;20448;-60
2022/05/21 12:53:55;;;;;;;3.60;3.13;;;19.40;99.90;;;;;;5053033;28;20452;-60
2022/05/21 12:56:29;;;;;;;2.63;2.43;;;19.20;99.90;;;;;;5053099;28;20531;-60
2022/05/21 12:59:05;;;;;;;7.27;2.93;;;19.00;99.90;;;;;;5053158;28;20452;-60
2022/05/21 13:01:31;;;;;;;4.87;2.80;;;19.10;99.90;;;;;;5053006;28;20444;-60
2022/05/21 13:03:59;;;;;;;6.27;2.80;;;19.20;99.90;;;;;;5052925;28;20448;-60
2022/05/21 13:06:29;;;;;;;2.93;2.50;;;19.50;99.90;;;;;;5052866;28;20518;-60
2022/05/21 13:08:59;;;;;;;2.60;2.40;;;19.60;99.90;;;;;;5052990;28;20480;-60
2022/05/21 13:11:32;;;;;;;4.60;2.37;;;19.70;99.90;;;;;;5052928;28;20522;-60
2022/05/21 13:14:03;;;;;;;2.90;2.33;;;19.90;99.90;;;;;;5052820;28;20498;-60
2022/05/21 13:16:30;;;;;;;2.37;2.17;;;20.00;99.90;;;;;;5052818;28;20452;-60
2022/05/21 13:19:18;;;;;;;3.90;2.23;;;20.20;99.90;;;;;;5052717;28;20452;-60
2022/05/21 13:21:53;;;;;;;5.73;2.63;;;20.40;99.90;;;;;;5052905;28;20537;-60
2022/05/21 13:24:32;;;;;;;2.90;2.27;;;20.50;99.90;;;;;;5052857;28;20451;-60
2022/05/21 13:27:08;;;;;;;2.30;2.10;;;20.70;99.90;;;;;;5052617;28;20539;-60
2022/05/21 13:29:35;;;;;;;2.77;2.10;;;20.80;99.90;;;;;;5052835;28;20557;-60
2022/05/21 13:32:16;;;;;;;2.80;2.30;;;20.90;99.90;;;;;;5052853;28;20535;-60
2022/05/21 13:34:43;;;;;;;2.67;2.40;;;20.80;99.90;;;;;;5052819;28;20452;-60